createdAt,value
2017-12-12T00:01:52.283Z,84.30
2017-12-12T00:04:19.780Z,84.30
2017-12-12T00:06:47.305Z,84.50
2017-12-12T00:09:14.808Z,84.50
2017-12-12T00:11:42.290Z,84.20
2017-12-12T00:14:10.609Z,84.30
2017-12-12T00:16:38.875Z,84.20
2017-12-12T00:19:07.141Z,84.60
2017-12-12T00:21:34.709Z,84.50
2017-12-12T00:24:02.210Z,84.20
2017-12-12T00:26:29.728Z,85.80
2017-12-12T00:28:57.642Z,85.30
2017-12-12T00:31:25.731Z,85.30
2017-12-12T00:33:53.260Z,85.30
2017-12-12T00:36:21.512Z,85.10
2017-12-12T00:38:50.640Z,84.90
2017-12-12T00:41:18.950Z,85.00
2017-12-12T00:43:48.967Z,85.00
2017-12-12T00:46:16.501Z,85.30
2017-12-12T00:48:44.918Z,85.00
2017-12-12T00:51:12.389Z,84.90
2017-12-12T00:53:39.872Z,84.70
2017-12-12T00:56:07.365Z,85.00
2017-12-12T00:58:35.807Z,85.20
2017-12-12T01:01:03.325Z,84.60
2017-12-12T01:03:31.601Z,84.80
2017-12-12T01:05:59.832Z,84.90
2017-12-12T01:08:27.357Z,84.90
2017-12-12T01:10:55.662Z,84.70
2017-12-12T01:13:23.858Z,84.70
2017-12-12T01:15:51.495Z,84.50
2017-12-12T01:18:19.013Z,84.80
2017-12-12T01:20:46.484Z,85.00
2017-12-12T01:23:14.081Z,85.10
2017-12-12T01:25:42.309Z,84.90
2017-12-12T01:28:09.788Z,84.90
2017-12-12T01:30:38.045Z,84.90
2017-12-12T01:33:05.821Z,84.90
2017-12-12T01:35:33.324Z,85.20
2017-12-12T01:38:01.591Z,84.70
2017-12-12T01:40:29.139Z,84.70
2017-12-12T01:42:57.417Z,84.50
2017-12-12T01:45:25.759Z,83.90
2017-12-12T01:47:53.249Z,84.00
2017-12-12T01:50:21.607Z,83.80
2017-12-12T01:52:49.064Z,83.20
2017-12-12T01:55:16.574Z,83.20
2017-12-12T01:57:44.173Z,83.30
2017-12-12T02:00:12.430Z,83.30
2017-12-12T02:02:39.963Z,83.30
2017-12-12T02:05:07.446Z,82.90
2017-12-12T02:07:34.959Z,82.70
2017-12-12T02:10:02.444Z,82.90
2017-12-12T02:12:29.959Z,83.10
2017-12-12T02:14:58.220Z,82.70
2017-12-12T02:17:25.900Z,82.70
2017-12-12T02:19:53.383Z,82.70
2017-12-12T02:22:20.883Z,82.90
2017-12-12T02:24:48.400Z,82.90
2017-12-12T02:27:16.677Z,82.50
2017-12-12T02:29:44.949Z,82.20
2017-12-12T02:32:13.474Z,82.10
2017-12-12T02:34:40.981Z,82.10
2017-12-12T02:37:08.556Z,82.10
2017-12-12T02:39:36.115Z,82.10
2017-12-12T02:42:03.609Z,82.00
2017-12-12T02:44:31.086Z,81.90
2017-12-12T02:46:58.581Z,81.70
2017-12-12T02:49:26.114Z,81.50
2017-12-12T02:51:53.604Z,81.40
2017-12-12T02:54:21.109Z,81.40
2017-12-12T02:56:49.382Z,80.60
2017-12-12T02:59:17.662Z,80.60
2017-12-12T03:01:45.932Z,80.70
2017-12-12T03:04:13.714Z,80.10
2017-12-12T03:06:41.233Z,79.90
2017-12-12T03:09:08.716Z,80.00
2017-12-12T03:11:36.318Z,79.50
2017-12-12T03:14:05.421Z,79.20
2017-12-12T03:16:33.663Z,79.30
2017-12-12T03:19:01.169Z,79.30
2017-12-12T03:21:29.427Z,79.00
2017-12-12T03:23:56.930Z,79.00
2017-12-12T03:26:24.471Z,79.10
2017-12-12T03:28:52.825Z,78.60
2017-12-12T03:31:20.371Z,78.60
2017-12-12T03:33:47.877Z,78.80
2017-12-12T03:36:15.425Z,78.50
2017-12-12T03:38:43.724Z,78.20
2017-12-12T03:41:11.994Z,78.00
2017-12-12T03:43:40.244Z,77.70
2017-12-12T03:46:07.724Z,77.60
2017-12-12T03:48:36.837Z,77.10
2017-12-12T03:51:05.088Z,77.20
2017-12-12T03:53:32.633Z,77.20
2017-12-12T03:56:00.139Z,77.00
2017-12-12T03:58:28.400Z,76.50
2017-12-12T04:00:56.968Z,76.40
2017-12-12T04:03:24.609Z,76.30
2017-12-12T04:05:52.126Z,76.00
2017-12-12T04:08:19.600Z,75.90
2017-12-12T04:10:47.595Z,76.00
2017-12-12T04:13:15.072Z,75.50
2017-12-12T04:15:42.561Z,75.30
2017-12-12T04:18:10.038Z,75.00
2017-12-12T04:20:37.544Z,75.00
2017-12-12T04:23:05.122Z,74.90
2017-12-12T04:25:32.603Z,74.90
2017-12-12T04:28:00.110Z,75.10
2017-12-12T04:30:27.592Z,75.00
2017-12-12T04:32:56.241Z,75.10
2017-12-12T04:35:23.913Z,75.10
2017-12-12T04:37:51.388Z,75.50
2017-12-12T04:40:18.997Z,75.00
2017-12-12T04:42:46.921Z,74.80
2017-12-12T04:45:16.032Z,74.80
2017-12-12T04:47:44.286Z,75.00
2017-12-12T04:50:11.781Z,74.40
2017-12-12T04:52:40.345Z,74.10
2017-12-12T04:55:08.596Z,74.10
2017-12-12T04:57:36.104Z,74.20
2017-12-12T05:00:03.593Z,74.20
2017-12-12T05:02:31.119Z,74.30
2017-12-12T05:04:58.661Z,74.00
2017-12-12T05:07:27.239Z,74.10
2017-12-12T05:09:54.728Z,74.00
2017-12-12T05:12:23.513Z,73.00
2017-12-12T05:14:51.062Z,73.30
2017-12-12T05:17:18.580Z,73.20
2017-12-12T05:19:46.838Z,73.10
2017-12-12T05:22:14.926Z,73.10
2017-12-12T05:24:43.542Z,72.40
2017-12-12T05:27:11.039Z,72.40
2017-12-12T05:29:38.760Z,72.40
2017-12-12T05:32:07.026Z,72.70
2017-12-12T05:34:35.284Z,72.60
2017-12-12T05:37:02.781Z,72.60
2017-12-12T05:39:31.337Z,72.40
2017-12-12T05:41:59.675Z,72.20
2017-12-12T05:44:28.216Z,72.20
2017-12-12T05:46:55.789Z,71.80
2017-12-12T05:49:24.102Z,71.30
2017-12-12T05:51:51.724Z,70.70
2017-12-12T05:54:19.756Z,70.50
2017-12-12T05:56:47.260Z,70.40
2017-12-12T05:59:15.754Z,70.00
2017-12-12T06:01:43.330Z,70.00
2017-12-12T06:04:11.577Z,70.00
2017-12-12T06:06:39.072Z,69.90
2017-12-12T06:09:07.319Z,69.70
2017-12-12T06:11:34.796Z,69.70
2017-12-12T06:14:02.285Z,69.30
2017-12-12T06:16:30.549Z,69.30
2017-12-12T06:18:58.125Z,69.40
2017-12-12T06:21:26.398Z,69.50
2017-12-12T06:23:54.661Z,67.80
2017-12-12T06:26:22.265Z,67.80
2017-12-12T06:28:49.765Z,66.90
2017-12-12T06:31:17.241Z,67.40
2017-12-12T06:33:44.725Z,66.50
2017-12-12T06:36:12.208Z,66.80
2017-12-12T06:38:40.255Z,65.80
2017-12-12T06:41:08.374Z,65.70
2017-12-12T06:43:35.871Z,66.30
2017-12-12T06:46:03.332Z,66.40
2017-12-12T06:48:30.817Z,65.90
2017-12-12T06:50:58.290Z,66.20
2017-12-12T06:53:25.801Z,65.60
2017-12-12T06:55:53.351Z,65.10
2017-12-12T06:58:21.542Z,64.70
2017-12-12T07:00:49.030Z,64.70
2017-12-12T07:03:16.563Z,65.10
2017-12-12T07:05:44.049Z,65.60
2017-12-12T07:08:11.565Z,66.20
2017-12-12T07:10:39.836Z,64.50
2017-12-12T07:13:09.277Z,64.30
2017-12-12T07:15:36.738Z,64.30
2017-12-12T07:18:04.277Z,63.70
2017-12-12T07:20:32.589Z,63.60
2017-12-12T07:23:00.121Z,63.50
2017-12-12T07:25:28.365Z,64.00
2017-12-12T07:27:56.046Z,64.00
2017-12-12T07:30:23.532Z,63.50
2017-12-12T07:32:51.821Z,62.70
2017-12-12T07:35:20.084Z,63.00
2017-12-12T07:37:48.572Z,63.00
2017-12-12T07:40:16.805Z,62.90
2017-12-12T07:42:44.343Z,62.60
2017-12-12T07:45:11.984Z,62.00
2017-12-12T07:47:39.521Z,61.70
2017-12-12T07:50:08.513Z,62.70
2017-12-12T07:52:36.635Z,62.60
2017-12-12T07:55:04.165Z,62.70
2017-12-12T07:57:31.723Z,62.00
2017-12-12T07:59:59.312Z,61.20
2017-12-12T08:02:27.600Z,62.00
2017-12-12T08:04:55.862Z,60.50
2017-12-12T08:07:23.373Z,60.30
2017-12-12T08:09:50.940Z,60.40
2017-12-12T08:12:18.484Z,60.50
2017-12-12T08:14:46.227Z,60.60
2017-12-12T08:17:14.556Z,60.10
2017-12-12T08:19:43.182Z,60.00
2017-12-12T08:22:10.759Z,60.00
2017-12-12T08:24:39.447Z,60.00
2017-12-12T08:27:07.014Z,60.00
2017-12-12T08:29:36.307Z,61.20
2017-12-12T08:32:04.588Z,61.10
2017-12-12T08:34:32.157Z,60.30
2017-12-12T08:36:59.754Z,61.30
2017-12-12T08:39:29.226Z,59.80
2017-12-12T08:41:57.487Z,59.80
2017-12-12T08:44:25.217Z,59.70
2017-12-12T08:46:54.180Z,59.80
2017-12-12T08:49:22.040Z,60.70
2017-12-12T08:51:50.743Z,60.60
2017-12-12T08:54:19.334Z,62.00
2017-12-12T08:56:47.294Z,62.10
2017-12-12T08:59:15.373Z,62.30
2017-12-12T09:01:44.023Z,61.60
2017-12-12T09:04:12.464Z,61.50
2017-12-12T09:06:40.790Z,61.20
2017-12-12T09:09:08.297Z,61.20
2017-12-12T09:11:35.776Z,61.80
2017-12-12T09:14:04.441Z,61.00
2017-12-12T09:16:31.961Z,60.80
2017-12-12T09:18:59.453Z,60.40
2017-12-12T09:21:27.774Z,59.90
2017-12-12T09:23:56.438Z,59.40
2017-12-12T09:26:23.941Z,59.90
2017-12-12T09:28:51.790Z,59.50
2017-12-12T09:31:20.108Z,59.80
2017-12-12T09:33:47.580Z,59.80
2017-12-12T09:36:15.165Z,59.30
2017-12-12T09:38:42.737Z,59.10
2017-12-12T09:41:11.033Z,59.50
2017-12-12T09:43:41.880Z,59.50
2017-12-12T09:46:10.252Z,59.40
2017-12-12T09:48:37.968Z,60.00
2017-12-12T09:51:05.687Z,60.00
2017-12-12T09:53:33.271Z,60.40
2017-12-12T09:56:01.578Z,59.90
2017-12-12T09:58:29.385Z,59.90
2017-12-12T10:00:57.976Z,60.50
2017-12-12T10:03:26.826Z,60.30
2017-12-12T10:05:54.600Z,60.90
2017-12-12T10:08:22.296Z,61.40
2017-12-12T10:10:50.012Z,61.60
2017-12-12T10:13:18.395Z,63.30
2017-12-12T10:15:47.494Z,64.60
2017-12-12T10:18:15.758Z,65.80
2017-12-12T10:20:44.028Z,66.20
2017-12-12T10:23:11.939Z,66.10
2017-12-12T10:25:40.552Z,66.80
2017-12-12T10:28:08.033Z,67.50
2017-12-12T10:30:35.542Z,67.50
2017-12-12T10:33:03.811Z,66.80
2017-12-12T10:35:32.842Z,67.00
2017-12-12T10:38:00.339Z,66.90
2017-12-12T10:40:29.704Z,66.70
2017-12-12T10:42:57.775Z,66.90
2017-12-12T10:45:25.323Z,66.80
2017-12-12T10:47:53.570Z,66.80
2017-12-12T10:50:21.068Z,66.80
2017-12-12T10:52:49.315Z,66.70
2017-12-12T10:55:16.800Z,66.60
2017-12-12T10:57:45.071Z,66.00
2017-12-12T11:00:12.544Z,65.80
2017-12-12T11:02:40.820Z,65.40
2017-12-12T11:05:08.409Z,65.30
2017-12-12T11:07:35.948Z,65.20
2017-12-12T11:10:04.205Z,65.70
2017-12-12T11:12:31.785Z,65.00
2017-12-12T11:14:59.394Z,64.90
2017-12-12T11:17:27.224Z,65.70
2017-12-12T11:19:54.758Z,65.90
2017-12-12T11:22:22.272Z,65.90
2017-12-12T11:24:50.524Z,66.20
2017-12-12T11:27:18.021Z,66.20
2017-12-12T11:29:45.517Z,66.30
2017-12-12T11:32:13.077Z,66.50
2017-12-12T11:34:40.588Z,66.50
2017-12-12T11:37:08.854Z,66.30
2017-12-12T11:39:36.437Z,66.80
2017-12-12T11:42:04.745Z,67.00
2017-12-12T11:44:32.306Z,66.90
2017-12-12T11:47:00.704Z,65.80
2017-12-12T11:49:28.184Z,65.70
2017-12-12T11:51:55.747Z,66.00
2017-12-12T11:54:23.204Z,66.00
2017-12-12T11:56:50.714Z,65.30
2017-12-12T11:59:19.730Z,65.30
2017-12-12T12:01:47.986Z,64.70
2017-12-12T12:04:15.485Z,64.60
2017-12-12T12:06:42.991Z,64.70
2017-12-12T12:09:10.521Z,64.90
2017-12-12T12:11:38.010Z,64.70
2017-12-12T12:14:05.520Z,64.30
2017-12-12T12:16:33.811Z,64.20
2017-12-12T12:19:02.080Z,64.10
2017-12-12T12:21:30.352Z,64.20
2017-12-12T12:23:57.866Z,64.20
2017-12-12T12:26:25.369Z,64.00
2017-12-12T12:28:52.988Z,63.80
2017-12-12T12:31:20.569Z,63.90
2017-12-12T12:33:48.093Z,63.60
2017-12-12T12:36:16.370Z,63.30
2017-12-12T12:38:44.634Z,62.40
2017-12-12T12:41:12.901Z,62.60
2017-12-12T12:43:40.420Z,61.80
2017-12-12T12:46:07.925Z,61.40
2017-12-12T12:48:36.267Z,61.90
2017-12-12T12:51:03.765Z,61.90
2017-12-12T12:53:31.294Z,61.90
2017-12-12T12:55:58.779Z,62.20
2017-12-12T12:58:26.270Z,61.50
2017-12-12T13:00:53.758Z,61.70
2017-12-12T13:03:22.034Z,60.50
2017-12-12T13:05:50.289Z,60.70
2017-12-12T13:08:17.810Z,60.60
2017-12-12T13:10:45.337Z,61.20
2017-12-12T13:13:13.598Z,60.40
2017-12-12T13:15:42.623Z,60.20
2017-12-12T13:18:10.896Z,60.10
2017-12-12T13:20:39.136Z,60.30
2017-12-12T13:23:06.702Z,60.20
2017-12-12T13:25:34.216Z,60.70
2017-12-12T13:28:01.705Z,60.80
2017-12-12T13:30:29.216Z,60.70
2017-12-12T13:32:57.552Z,60.70
2017-12-12T13:35:25.066Z,60.60
2017-12-12T13:37:53.328Z,61.40
2017-12-12T13:40:20.851Z,61.40
2017-12-12T13:42:48.340Z,61.10
2017-12-12T13:45:15.878Z,60.90
2017-12-12T13:47:43.398Z,60.40
2017-12-12T13:50:11.693Z,60.90
2017-12-12T13:52:39.989Z,61.30
2017-12-12T13:55:07.546Z,61.30
2017-12-12T13:57:35.604Z,61.30
2017-12-12T14:00:03.910Z,62.00
2017-12-12T14:02:31.444Z,61.40
2017-12-12T14:04:58.953Z,61.90
2017-12-12T14:07:26.448Z,62.50
2017-12-12T14:09:53.938Z,62.50
2017-12-12T14:12:22.758Z,62.50
2017-12-12T14:14:50.298Z,62.50
2017-12-12T14:17:18.558Z,62.60
2017-12-12T14:19:46.836Z,63.10
2017-12-12T14:22:14.309Z,63.10
2017-12-12T14:24:41.840Z,63.10
2017-12-12T14:27:09.386Z,64.00
2017-12-12T14:29:36.932Z,64.20
2017-12-12T14:32:05.196Z,63.80
2017-12-12T14:34:33.485Z,64.30
2017-12-12T14:37:01.821Z,64.70
2017-12-12T14:39:29.354Z,64.70
2017-12-12T14:41:56.869Z,64.60
2017-12-12T14:44:24.834Z,65.00
2017-12-12T14:46:52.336Z,65.80
2017-12-12T14:49:20.330Z,65.70
2017-12-12T14:51:47.881Z,65.60
2017-12-12T14:54:17.049Z,65.10
2017-12-12T14:56:45.735Z,65.10
2017-12-12T14:59:13.304Z,65.10
2017-12-12T15:01:40.827Z,64.90
2017-12-12T15:04:09.377Z,66.10
2017-12-12T15:06:36.931Z,65.10
2017-12-12T15:09:05.195Z,65.80
2017-12-12T15:11:32.744Z,65.80
2017-12-12T15:14:00.253Z,65.50
2017-12-12T15:16:27.784Z,65.50
2017-12-12T15:18:56.076Z,65.70
2017-12-12T15:21:24.344Z,66.10
2017-12-12T15:23:51.886Z,66.00
2017-12-12T15:26:19.394Z,66.70
2017-12-12T15:28:48.626Z,68.00
2017-12-12T15:31:16.145Z,68.00
2017-12-12T15:33:43.633Z,68.30
2017-12-12T15:36:11.459Z,68.60
2017-12-12T15:38:40.145Z,69.50
2017-12-12T15:41:07.693Z,70.30
2017-12-12T15:43:35.178Z,71.60
2017-12-12T15:46:02.691Z,71.70
2017-12-12T15:48:30.189Z,72.50
2017-12-12T15:50:57.809Z,73.30
2017-12-12T15:53:26.685Z,73.80
2017-12-12T15:55:54.981Z,74.20
2017-12-12T15:58:22.481Z,74.20
2017-12-12T16:00:50.044Z,74.10
2017-12-12T16:03:17.558Z,74.50
2017-12-12T16:05:45.808Z,75.10
2017-12-12T16:08:13.609Z,75.10
2017-12-12T16:10:41.873Z,75.60
2017-12-12T16:13:09.373Z,75.60
2017-12-12T16:15:36.931Z,75.40
2017-12-12T16:18:04.450Z,75.90
2017-12-12T16:20:31.946Z,76.00
2017-12-12T16:23:00.232Z,76.40
2017-12-12T16:25:28.480Z,75.90
2017-12-12T16:27:55.979Z,75.90
2017-12-12T16:30:23.516Z,76.10
2017-12-12T16:32:51.133Z,76.60
2017-12-12T16:35:18.723Z,77.10
2017-12-12T16:37:46.617Z,76.80
2017-12-12T16:40:14.156Z,77.70
2017-12-12T16:42:41.686Z,78.30
2017-12-12T16:45:09.277Z,78.30
2017-12-12T16:47:36.828Z,78.50
2017-12-12T16:50:04.329Z,79.20
2017-12-12T16:52:33.697Z,79.10
2017-12-12T16:55:01.967Z,78.90
2017-12-12T16:57:29.684Z,77.70
2017-12-12T16:59:57.169Z,77.90
2017-12-12T17:02:25.449Z,77.60
2017-12-12T17:04:53.707Z,77.40
2017-12-12T17:07:21.191Z,77.40
2017-12-12T17:09:49.440Z,78.20
2017-12-12T17:12:16.958Z,78.20
2017-12-12T17:14:44.449Z,78.50
2017-12-12T17:17:11.960Z,78.00
2017-12-12T17:19:40.209Z,79.80
2017-12-12T17:22:07.694Z,79.00
2017-12-12T17:24:35.310Z,79.10
2017-12-12T17:27:02.866Z,80.10
2017-12-12T17:29:30.357Z,79.90
2017-12-12T17:31:57.849Z,80.50
2017-12-12T17:34:25.461Z,78.60
2017-12-12T17:36:52.958Z,78.70
2017-12-12T17:39:20.498Z,78.80
2017-12-12T17:41:47.987Z,79.60
2017-12-12T17:44:16.215Z,78.30
2017-12-12T17:46:43.716Z,78.90
2017-12-12T17:49:11.265Z,79.30
2017-12-12T17:51:38.764Z,79.40
2017-12-12T17:54:07.070Z,79.00
2017-12-12T17:56:35.356Z,79.30
2017-12-12T17:59:02.978Z,79.30
2017-12-12T18:01:30.464Z,79.30
2017-12-12T18:03:59.472Z,79.00
2017-12-12T18:06:27.729Z,79.00
2017-12-12T18:08:55.272Z,79.00
2017-12-12T18:11:22.793Z,79.90
2017-12-12T18:13:51.060Z,80.40
2017-12-12T18:16:19.308Z,78.60
2017-12-12T18:18:46.805Z,78.90
2017-12-12T18:21:15.833Z,79.60
2017-12-12T18:23:43.373Z,79.50
2017-12-12T18:26:11.640Z,78.60
2017-12-12T18:28:39.956Z,78.10
2017-12-12T18:31:07.440Z,78.80
2017-12-12T18:33:35.095Z,78.60
2017-12-12T18:36:02.593Z,78.80
2017-12-12T18:38:30.116Z,77.80
2017-12-12T18:40:57.622Z,78.00
2017-12-12T18:43:25.141Z,78.70
2017-12-12T18:45:52.650Z,78.00
2017-12-12T18:48:20.260Z,77.10
2017-12-12T18:50:48.505Z,77.00
2017-12-12T18:53:15.992Z,77.00
2017-12-12T18:55:44.262Z,76.10
2017-12-12T18:58:12.531Z,76.20
2017-12-12T19:00:40.141Z,76.20
2017-12-12T19:03:07.631Z,76.10
2017-12-12T19:05:35.228Z,76.20
2017-12-12T19:08:03.510Z,75.70
2017-12-12T19:10:31.009Z,75.70
2017-12-12T19:12:58.492Z,74.80
2017-12-12T19:15:26.001Z,75.10
2017-12-12T19:17:54.253Z,74.50
2017-12-12T19:20:22.554Z,74.40
2017-12-12T19:22:50.126Z,74.40
2017-12-12T19:25:17.658Z,74.30
2017-12-12T19:27:45.189Z,75.00
2017-12-12T19:30:13.479Z,75.00
2017-12-12T19:32:41.564Z,75.00
2017-12-12T19:35:09.087Z,75.70
2017-12-12T19:37:37.387Z,76.80
2017-12-12T19:40:04.894Z,76.80
2017-12-12T19:42:32.452Z,76.00
2017-12-12T19:45:00.543Z,75.70
2017-12-12T19:47:28.420Z,76.00
2017-12-12T19:49:57.357Z,76.40
2017-12-12T19:52:24.860Z,76.40
2017-12-12T19:54:52.354Z,76.40
2017-12-12T19:57:19.864Z,76.20
2017-12-12T19:59:47.440Z,76.30
2017-12-12T20:02:14.970Z,75.60
2017-12-12T20:04:42.568Z,76.20
2017-12-12T20:07:10.052Z,76.30
2017-12-12T20:09:37.554Z,76.50
2017-12-12T20:12:05.845Z,76.50
2017-12-12T20:14:35.579Z,76.60
2017-12-12T20:17:03.132Z,76.60
2017-12-12T20:19:30.661Z,76.70
2017-12-12T20:21:58.851Z,77.20
2017-12-12T20:24:27.127Z,76.50
2017-12-12T20:26:54.663Z,76.50
2017-12-12T20:29:22.201Z,76.70
2017-12-12T20:31:49.783Z,76.60
2017-12-12T20:34:17.262Z,76.50
2017-12-12T20:36:44.787Z,76.30
2017-12-12T20:39:12.298Z,76.30
2017-12-12T20:41:40.591Z,76.00
2017-12-12T20:44:08.216Z,75.90
2017-12-12T20:46:35.736Z,75.90
2017-12-12T20:49:03.314Z,75.90
2017-12-12T20:51:30.859Z,75.80
2017-12-12T20:53:59.508Z,75.50
2017-12-12T20:56:27.067Z,75.50
2017-12-12T20:58:54.585Z,75.50
2017-12-12T21:01:22.327Z,75.80
2017-12-12T21:03:49.809Z,75.60
2017-12-12T21:06:18.075Z,75.50
2017-12-12T21:08:46.325Z,76.30
2017-12-12T21:11:14.160Z,75.60
2017-12-12T21:13:41.692Z,75.90
2017-12-12T21:16:09.952Z,75.30
2017-12-12T21:18:37.522Z,75.30
2017-12-12T21:21:05.804Z,75.50
2017-12-12T21:23:33.323Z,74.90
2017-12-12T21:26:01.119Z,75.00
2017-12-12T21:28:29.540Z,75.10
2017-12-12T21:30:57.813Z,75.20
2017-12-12T21:33:26.342Z,75.40
2017-12-12T21:35:53.841Z,75.30
2017-12-12T21:38:21.374Z,75.20
2017-12-12T21:40:48.877Z,75.40
2017-12-12T21:43:16.565Z,74.80
2017-12-12T21:45:44.234Z,75.20
2017-12-12T21:48:12.523Z,74.70
2017-12-12T21:50:40.025Z,74.80
2017-12-12T21:53:07.515Z,74.70
2017-12-12T21:55:36.178Z,74.20
2017-12-12T21:58:03.757Z,74.20
2017-12-12T22:00:31.311Z,74.20
2017-12-12T22:02:58.836Z,75.00
2017-12-12T22:05:27.172Z,74.20
2017-12-12T22:07:54.872Z,74.00
2017-12-12T22:10:23.288Z,74.30
2017-12-12T22:12:51.921Z,74.10
2017-12-12T22:15:20.179Z,74.20
2017-12-12T22:17:47.697Z,74.20
2017-12-12T22:20:15.221Z,74.50
2017-12-12T22:22:43.472Z,74.40
2017-12-12T22:25:10.995Z,74.40
2017-12-12T22:27:38.483Z,74.30
2017-12-12T22:30:06.021Z,74.50
2017-12-12T22:32:34.269Z,74.00
2017-12-12T22:35:01.761Z,74.00
2017-12-12T22:37:30.053Z,74.10
2017-12-12T22:39:57.562Z,74.10
2017-12-12T22:42:25.056Z,74.40
2017-12-12T22:44:53.308Z,74.50
2017-12-12T22:47:20.820Z,74.50
2017-12-12T22:49:48.320Z,74.50
2017-12-12T22:52:15.841Z,74.40
2017-12-12T22:54:44.094Z,73.90
2017-12-12T22:57:12.304Z,73.80
2017-12-12T22:59:41.089Z,74.20
2017-12-12T23:02:08.911Z,74.20
2017-12-12T23:04:37.295Z,74.40
2017-12-12T23:07:04.802Z,74.20
2017-12-12T23:09:32.385Z,74.30
2017-12-12T23:12:00.143Z,74.30
2017-12-12T23:14:28.656Z,74.40
2017-12-12T23:16:56.211Z,74.40
2017-12-12T23:19:25.551Z,74.10
2017-12-12T23:21:55.072Z,74.00
2017-12-12T23:24:22.808Z,74.00
2017-12-12T23:26:50.325Z,74.00
2017-12-12T23:29:17.867Z,73.90
2017-12-12T23:31:45.625Z,74.10
2017-12-12T23:34:13.109Z,74.40
2017-12-12T23:36:41.391Z,74.30
2017-12-12T23:39:10.070Z,74.20
2017-12-12T23:41:38.420Z,74.20
2017-12-12T23:44:06.656Z,74.00
2017-12-12T23:46:34.441Z,73.70
2017-12-12T23:49:02.127Z,73.50
2017-12-12T23:51:29.608Z,73.70
2017-12-12T23:53:57.142Z,73.70
2017-12-12T23:56:24.633Z,73.90
2017-12-12T23:58:52.152Z,73.90
